createdAt,value
2019-03-23T00:01:03.202Z,99551.37
2019-03-23T00:03:35.745Z,99548.84
2019-03-23T00:06:09.949Z,99539.36
2019-03-23T00:08:43.887Z,99536.06
2019-03-23T00:11:16.576Z,99537.73
2019-03-23T00:13:49.122Z,99543.06
2019-03-23T00:16:21.863Z,99538.20
2019-03-23T00:18:55.464Z,99539.17
2019-03-23T00:21:28.196Z,99538.17
2019-03-23T00:24:01.536Z,99537.67
2019-03-23T00:26:35.405Z,99526.95
2019-03-23T00:29:08.110Z,99524.20
2019-03-23T00:31:40.832Z,99525.51
2019-03-23T00:34:13.502Z,99514.87
2019-03-23T00:36:46.122Z,99512.69
2019-03-23T00:39:21.390Z,99517.56
2019-03-23T00:41:53.903Z,99517.73
2019-03-23T00:44:43.217Z,99514.45
2019-03-23T00:47:15.891Z,99510.48
2019-03-23T00:49:48.739Z,99509.83
2019-03-23T00:52:30.691Z,99514.23
2019-03-23T00:55:03.305Z,99510.08
2019-03-23T00:57:35.914Z,99512.73
2019-03-23T01:00:09.604Z,99508.16
2019-03-23T01:02:42.425Z,99502.39
2019-03-23T01:05:15.040Z,99501.16
2019-03-23T01:07:47.768Z,99510.09
2019-03-23T01:10:27.010Z,99498.41
2019-03-23T01:12:59.754Z,99494.06
2019-03-23T01:15:42.917Z,99494.91
2019-03-23T01:18:15.435Z,99510.52
2019-03-23T01:20:49.942Z,99496.73
2019-03-23T01:23:22.357Z,99504.53
2019-03-23T01:25:58.326Z,99502.02
2019-03-23T01:28:30.848Z,99501.16
2019-03-23T01:31:06.539Z,99508.99
2019-03-23T01:33:39.212Z,99509.66
2019-03-23T01:36:21.058Z,99510.52
2019-03-23T01:38:53.633Z,99512.86
2019-03-23T01:41:33.642Z,99515.66
2019-03-23T01:44:06.984Z,99510.11
2019-03-23T01:46:42.506Z,99512.58
2019-03-23T01:49:15.076Z,99518.98
2019-03-23T01:51:47.597Z,99516.41
2019-03-23T01:54:20.032Z,99513.45
2019-03-23T01:56:52.629Z,99513.30
2019-03-23T01:59:25.272Z,99511.56
2019-03-23T02:01:57.838Z,99502.69
2019-03-23T02:04:30.467Z,99504.34
2019-03-23T02:07:13.172Z,99495.35
2019-03-23T02:09:37.433Z,99499.20
2019-03-23T02:12:10.157Z,99503.02
2019-03-23T02:14:42.569Z,99498.08
2019-03-23T02:17:15.099Z,99498.75
2019-03-23T02:19:47.695Z,99494.75
2019-03-23T02:22:20.348Z,99499.37
2019-03-23T02:24:53.031Z,99502.00
2019-03-23T02:27:25.647Z,99495.17
2019-03-23T02:29:58.178Z,99499.28
2019-03-23T02:32:30.754Z,99494.26
2019-03-23T02:35:03.321Z,99492.23
2019-03-23T02:37:35.976Z,99500.22
2019-03-23T02:40:09.296Z,99488.59
2019-03-23T02:42:41.925Z,99492.89
2019-03-23T02:45:14.902Z,99493.48
2019-03-23T02:47:47.283Z,99497.86
2019-03-23T02:50:19.986Z,99496.98
2019-03-23T02:52:55.716Z,99497.04
2019-03-23T02:55:28.352Z,99494.60
2019-03-23T02:58:04.151Z,99494.19
2019-03-23T03:00:36.836Z,99491.22
2019-03-23T03:03:09.603Z,99488.22
2019-03-23T03:05:42.332Z,99484.34
2019-03-23T03:08:23.985Z,99485.64
2019-03-23T03:10:56.756Z,99488.13
2019-03-23T03:13:36.843Z,99482.46
2019-03-23T03:16:09.518Z,99478.38
2019-03-23T03:18:42.094Z,99485.52
2019-03-23T03:21:14.555Z,99484.22
2019-03-23T03:23:56.631Z,99489.02
2019-03-23T03:26:29.002Z,99491.31
2019-03-23T03:29:01.661Z,99487.72
2019-03-23T03:31:34.220Z,99483.06
2019-03-23T03:34:10.782Z,99483.49
2019-03-23T03:36:43.953Z,99481.89
2019-03-23T03:39:34.454Z,99479.65
2019-03-23T03:42:07.862Z,99485.20
2019-03-23T03:44:40.187Z,99488.07
2019-03-23T03:47:12.791Z,99490.16
2019-03-23T03:49:45.508Z,99489.72
2019-03-23T03:52:17.994Z,99487.94
2019-03-23T03:54:53.557Z,99489.44
2019-03-23T03:57:25.916Z,99492.84
2019-03-23T04:00:07.600Z,99489.23
2019-03-23T04:02:40.106Z,99492.50
2019-03-23T04:05:15.772Z,99486.33
2019-03-23T04:07:48.371Z,99481.95
2019-03-23T04:10:30.606Z,99484.81
2019-03-23T04:13:03.047Z,99484.98
2019-03-23T04:15:35.931Z,99481.91
2019-03-23T04:18:08.232Z,99487.43
2019-03-23T04:20:46.254Z,99485.93
2019-03-23T04:23:18.941Z,99486.93
2019-03-23T04:25:55.551Z,99492.10
2019-03-23T04:28:29.075Z,99486.76
2019-03-23T04:31:05.747Z,99488.98
2019-03-23T04:33:38.310Z,99490.63
2019-03-23T04:36:14.747Z,99486.28
2019-03-23T04:38:47.283Z,99491.43
2019-03-23T04:41:27.527Z,99491.02
2019-03-23T04:44:00.052Z,99494.59
2019-03-23T04:46:41.345Z,99488.84
2019-03-23T04:49:13.868Z,99485.54
2019-03-23T04:51:46.373Z,99486.73
2019-03-23T04:54:18.899Z,99478.82
2019-03-23T04:56:57.540Z,99486.22
2019-03-23T04:59:30.187Z,99486.55
2019-03-23T05:02:15.040Z,99487.61
2019-03-23T05:04:47.507Z,99485.27
2019-03-23T05:07:20.372Z,99487.13
2019-03-23T05:09:52.972Z,99487.62
2019-03-23T05:12:28.980Z,99490.20
2019-03-23T05:15:01.504Z,99487.73
2019-03-23T05:17:34.191Z,99488.48
2019-03-23T05:20:07.452Z,99488.73
2019-03-23T05:22:40.050Z,99487.44
2019-03-23T05:25:24.948Z,99487.00
2019-03-23T05:27:57.764Z,99496.78
2019-03-23T05:30:30.323Z,99499.22
2019-03-23T05:33:03.008Z,99506.36
2019-03-23T05:35:36.641Z,99508.37
2019-03-23T05:38:09.018Z,99505.55
2019-03-23T05:40:41.504Z,99508.05
2019-03-23T05:43:13.893Z,99505.63
2019-03-23T05:45:46.378Z,99505.97
2019-03-23T05:48:18.829Z,99508.75
2019-03-23T05:50:51.470Z,99510.47
2019-03-23T05:53:24.060Z,99505.48
2019-03-23T05:55:56.567Z,99511.72
2019-03-23T05:58:29.105Z,99510.36
2019-03-23T06:01:01.785Z,99513.51
2019-03-23T06:03:34.227Z,99511.64
2019-03-23T06:06:06.959Z,99513.50
2019-03-23T06:08:39.503Z,99512.81
2019-03-23T06:11:11.929Z,99513.28
2019-03-23T06:13:44.474Z,99514.58
2019-03-23T06:16:17.918Z,99523.56
2019-03-23T06:18:50.625Z,99522.53
2019-03-23T06:21:23.238Z,99521.23
2019-03-23T06:23:55.773Z,99522.16
2019-03-23T06:26:28.448Z,99521.49
2019-03-23T06:29:01.029Z,99520.19
2019-03-23T06:31:33.595Z,99525.72
2019-03-23T06:34:06.062Z,99513.37
2019-03-23T06:36:39.115Z,99516.11
2019-03-23T06:39:11.640Z,99520.30
2019-03-23T06:41:44.139Z,99524.44
2019-03-23T06:44:18.390Z,99518.44
2019-03-23T06:46:51.107Z,99522.16
2019-03-23T06:49:23.701Z,99526.17
2019-03-23T06:51:56.229Z,99519.94
2019-03-23T06:54:28.930Z,99513.91
2019-03-23T06:57:01.479Z,99517.19
2019-03-23T06:59:34.240Z,99523.16
2019-03-23T07:02:06.678Z,99523.24
2019-03-23T07:04:39.207Z,99516.25
2019-03-23T07:07:11.655Z,99515.53
2019-03-23T07:09:47.273Z,99508.91
2019-03-23T07:12:19.885Z,99513.36
2019-03-23T07:14:56.601Z,99510.88
2019-03-23T07:17:30.116Z,99512.45
2019-03-23T07:20:08.355Z,99517.31
2019-03-23T07:22:41.404Z,99517.70
2019-03-23T07:25:22.973Z,99514.22
2019-03-23T07:27:55.824Z,99515.63
2019-03-23T07:30:31.296Z,99511.23
2019-03-23T07:33:03.861Z,99513.05
2019-03-23T07:35:37.845Z,99516.38
2019-03-23T07:38:10.929Z,99517.07
2019-03-23T07:40:52.530Z,99520.86
2019-03-23T07:43:25.245Z,99523.88
2019-03-23T07:46:02.964Z,99522.14
2019-03-23T07:48:35.803Z,99520.00
2019-03-23T07:51:14.464Z,99516.48
2019-03-23T07:53:47.044Z,99520.58
2019-03-23T07:56:19.717Z,99525.94
2019-03-23T07:58:52.959Z,99522.00
2019-03-23T08:01:28.618Z,99520.05
2019-03-23T08:04:01.680Z,99521.48
2019-03-23T08:06:44.079Z,99519.48
2019-03-23T08:09:20.670Z,99516.64
2019-03-23T08:11:52.856Z,99518.00
2019-03-23T08:14:25.779Z,99516.55
2019-03-23T08:17:04.497Z,99515.81
2019-03-23T08:19:38.394Z,99512.05
2019-03-23T08:22:11.285Z,99512.91
2019-03-23T08:24:43.850Z,99514.22
2019-03-23T08:27:19.813Z,99510.45
2019-03-23T08:29:52.293Z,99505.87
2019-03-23T08:32:31.808Z,99511.45
2019-03-23T08:35:05.414Z,99508.84
2019-03-23T08:37:41.481Z,99511.48
2019-03-23T08:40:14.364Z,99504.73
2019-03-23T08:42:56.665Z,99505.17
2019-03-23T08:45:30.003Z,99498.53
2019-03-23T08:48:06.089Z,99505.53
2019-03-23T08:50:40.398Z,99506.83
2019-03-23T08:53:20.579Z,99498.70
2019-03-23T08:55:53.438Z,99500.44
2019-03-23T08:58:32.233Z,99500.78
2019-03-23T09:01:05.353Z,99498.89
2019-03-23T09:03:40.788Z,99494.53
2019-03-23T09:06:13.362Z,99497.41
2019-03-23T09:08:46.086Z,99492.91
2019-03-23T09:11:20.615Z,99493.16
2019-03-23T09:13:54.068Z,99483.04
2019-03-23T09:16:26.674Z,99489.24
2019-03-23T09:18:59.293Z,99481.70
2019-03-23T09:21:31.703Z,99483.63
2019-03-23T09:24:04.310Z,99478.09
2019-03-23T09:26:36.948Z,99481.24
2019-03-23T09:29:21.382Z,99483.64
2019-03-23T09:31:53.866Z,99471.52
2019-03-23T09:34:26.581Z,99470.67
2019-03-23T09:37:00.690Z,99467.95
2019-03-23T09:39:40.026Z,99470.38
2019-03-23T09:42:12.633Z,99473.88
2019-03-23T09:44:45.245Z,99473.48
2019-03-23T09:47:17.938Z,99463.84
2019-03-23T09:49:53.822Z,99462.61
2019-03-23T09:52:27.057Z,99457.30
2019-03-23T09:55:13.248Z,99454.63
2019-03-23T09:57:46.188Z,99451.31
2019-03-23T10:00:19.553Z,99444.61
2019-03-23T10:02:52.247Z,99442.84
2019-03-23T10:05:24.864Z,99438.65
2019-03-23T10:07:57.418Z,99434.78
2019-03-23T10:10:34.213Z,99443.33
2019-03-23T10:13:06.700Z,99438.55
2019-03-23T10:15:51.838Z,99437.91
2019-03-23T10:18:24.468Z,99432.73
2019-03-23T10:21:00.022Z,99439.78
2019-03-23T10:23:33.042Z,99433.72
2019-03-23T10:26:11.678Z,99431.99
2019-03-23T10:28:44.754Z,99431.35
2019-03-23T10:31:20.779Z,99423.91
2019-03-23T10:33:53.754Z,99434.94
2019-03-23T10:36:26.996Z,99429.39
2019-03-23T10:38:59.703Z,99428.11
2019-03-23T10:41:41.059Z,99421.58
2019-03-23T10:44:13.708Z,99431.68
2019-03-23T10:46:54.634Z,99423.98
2019-03-23T10:49:27.365Z,99424.70
2019-03-23T10:51:59.892Z,99425.31
2019-03-23T10:54:32.546Z,99422.55
2019-03-23T10:57:11.419Z,99415.24
2019-03-23T10:59:44.079Z,99416.63
2019-03-23T11:02:19.766Z,99412.33
2019-03-23T11:04:52.715Z,99405.59
2019-03-23T11:07:35.137Z,99407.61
2019-03-23T11:10:08.280Z,99417.04
2019-03-23T11:12:41.285Z,99410.50
2019-03-23T11:15:14.278Z,99411.25
2019-03-23T11:17:50.793Z,99415.29
2019-03-23T11:20:24.673Z,99409.88
2019-03-23T11:23:05.000Z,99406.45
2019-03-23T11:25:39.084Z,99405.88
2019-03-23T11:28:15.201Z,99399.23
2019-03-23T11:30:48.435Z,99392.73
2019-03-23T11:33:28.119Z,99401.33
2019-03-23T11:36:00.911Z,99397.33
2019-03-23T11:38:37.967Z,99391.19
2019-03-23T11:41:17.993Z,99386.44
2019-03-23T11:43:50.973Z,99387.62
2019-03-23T11:46:23.809Z,99385.70
2019-03-23T11:48:57.441Z,99382.45
2019-03-23T11:51:30.003Z,99370.48
2019-03-23T11:54:02.795Z,99372.00
2019-03-23T11:56:35.584Z,99351.87
2019-03-23T11:59:08.225Z,99354.48
2019-03-23T12:01:51.303Z,99351.52
2019-03-23T12:04:16.026Z,99347.92
2019-03-23T12:06:48.825Z,99342.09
2019-03-23T12:09:24.604Z,99348.73
2019-03-23T12:11:57.633Z,99341.26
2019-03-23T12:14:31.452Z,99342.06
2019-03-23T12:17:04.655Z,99337.20
2019-03-23T12:19:37.166Z,99326.75
2019-03-23T12:22:10.055Z,99331.59
2019-03-23T12:24:42.773Z,99325.82
2019-03-23T12:27:15.979Z,99311.20
2019-03-23T12:29:48.963Z,99306.20
2019-03-23T12:32:21.747Z,99306.74
2019-03-23T12:34:54.450Z,99303.24
2019-03-23T12:37:27.164Z,99295.97
2019-03-23T12:39:59.902Z,99295.95
2019-03-23T12:42:33.541Z,99300.02
2019-03-23T12:45:06.728Z,99297.23
2019-03-23T12:47:39.440Z,99291.44
2019-03-23T12:50:13.166Z,99284.59
2019-03-23T12:52:45.870Z,99283.73
2019-03-23T12:55:19.255Z,99274.23
2019-03-23T12:57:52.009Z,99263.61
2019-03-23T13:00:24.998Z,99255.03
2019-03-23T13:02:57.464Z,99267.07
2019-03-23T13:05:30.095Z,99270.14
2019-03-23T13:08:03.097Z,99268.38
2019-03-23T13:10:36.332Z,99276.94
2019-03-23T13:13:08.934Z,99267.70
2019-03-23T13:15:41.638Z,99266.47
2019-03-23T13:18:14.602Z,99265.30
2019-03-23T13:20:47.219Z,99253.80
2019-03-23T13:23:20.461Z,99256.36
2019-03-23T13:25:53.436Z,99258.05
2019-03-23T13:28:26.485Z,99259.67
2019-03-23T13:30:59.244Z,99264.20
2019-03-23T13:33:31.626Z,99255.00
2019-03-23T13:36:04.545Z,99247.90
2019-03-23T13:38:39.880Z,99245.53
2019-03-23T13:41:13.447Z,99242.02
2019-03-23T13:43:46.123Z,99243.36
2019-03-23T13:46:18.683Z,99233.30
2019-03-23T13:48:51.088Z,99236.28
2019-03-23T13:51:24.639Z,99227.98
2019-03-23T13:53:57.299Z,99230.14
2019-03-23T13:56:30.184Z,99216.87
2019-03-23T13:59:02.777Z,99220.73
2019-03-23T14:01:36.655Z,99213.25
2019-03-23T14:04:10.169Z,99219.41
2019-03-23T14:06:42.889Z,99210.63
2019-03-23T14:09:16.204Z,99204.59
2019-03-23T14:11:54.951Z,99213.51
2019-03-23T14:14:24.044Z,99206.70
2019-03-23T14:16:57.758Z,99213.80
2019-03-23T14:19:30.926Z,99214.05
2019-03-23T14:22:03.528Z,99202.95
2019-03-23T14:24:36.082Z,99206.40
2019-03-23T14:27:09.186Z,99199.69
2019-03-23T14:29:41.823Z,99199.63
2019-03-23T14:32:15.097Z,99200.47
2019-03-23T14:34:47.670Z,99198.81
2019-03-23T14:37:20.365Z,99187.04
2019-03-23T14:39:53.100Z,99183.14
2019-03-23T14:42:26.459Z,99180.58
2019-03-23T14:45:00.038Z,99177.92
2019-03-23T14:47:34.401Z,99171.23
2019-03-23T14:50:07.892Z,99172.17
2019-03-23T14:52:40.700Z,99170.31
2019-03-23T14:55:13.274Z,99171.46
2019-03-23T14:57:46.703Z,99168.70
2019-03-23T15:00:32.087Z,99170.66
2019-03-23T15:03:05.539Z,99165.90
2019-03-23T15:05:38.868Z,99158.64
2019-03-23T15:08:13.659Z,99164.02
2019-03-23T15:10:46.541Z,99161.81
2019-03-23T15:13:19.252Z,99158.55
2019-03-23T15:15:52.280Z,99159.86
2019-03-23T15:18:25.238Z,99157.77
2019-03-23T15:20:59.003Z,99160.98
2019-03-23T15:23:39.284Z,99152.64
2019-03-23T15:26:12.130Z,99149.00
2019-03-23T15:28:47.600Z,99153.79
2019-03-23T15:31:21.326Z,99157.83
2019-03-23T15:34:00.107Z,99154.70
2019-03-23T15:36:32.874Z,99155.44
2019-03-23T15:39:07.472Z,99155.55
2019-03-23T15:41:40.735Z,99153.98
2019-03-23T15:44:13.844Z,99144.60
2019-03-23T15:46:46.656Z,99141.84
2019-03-23T15:49:19.718Z,99144.34
2019-03-23T15:51:52.324Z,99139.77
2019-03-23T15:54:26.010Z,99143.19
2019-03-23T15:56:59.693Z,99149.61
2019-03-23T15:59:32.615Z,99150.62
2019-03-23T16:02:05.402Z,99156.03
2019-03-23T16:04:38.012Z,99159.61
2019-03-23T16:07:10.789Z,99153.16
2019-03-23T16:09:44.419Z,99161.70
2019-03-23T16:12:17.143Z,99165.86
2019-03-23T16:14:49.808Z,99164.50
2019-03-23T16:17:22.386Z,99167.50
2019-03-23T16:19:54.899Z,99172.67
2019-03-23T16:22:28.000Z,99172.14
2019-03-23T16:25:01.289Z,99168.50
2019-03-23T16:27:34.317Z,99164.52
2019-03-23T16:30:08.847Z,99175.20
2019-03-23T16:32:41.463Z,99168.31
2019-03-23T16:35:14.529Z,99170.39
2019-03-23T16:37:47.698Z,99167.89
2019-03-23T16:40:20.411Z,99164.59
2019-03-23T16:42:53.069Z,99163.22
2019-03-23T16:45:25.553Z,99165.09
2019-03-23T16:47:58.218Z,99167.36
2019-03-23T16:50:31.433Z,99167.95
2019-03-23T16:53:04.755Z,99169.19
2019-03-23T16:55:38.606Z,99174.30
2019-03-23T16:58:16.060Z,99182.74
2019-03-23T17:00:46.215Z,99188.39
2019-03-23T17:03:19.216Z,99188.64
2019-03-23T17:05:51.937Z,99185.17
2019-03-23T17:08:24.715Z,99187.23
2019-03-23T17:10:57.388Z,99183.43
2019-03-23T17:13:31.168Z,99182.95
2019-03-23T17:16:04.570Z,99186.74
2019-03-23T17:18:38.208Z,99189.04
2019-03-23T17:21:11.006Z,99182.55
2019-03-23T17:23:43.916Z,99184.95
2019-03-23T17:26:17.453Z,99188.05
2019-03-23T17:28:50.770Z,99183.47
2019-03-23T17:31:23.961Z,99187.89
2019-03-23T17:33:56.742Z,99185.67
2019-03-23T17:36:29.516Z,99188.94
2019-03-23T17:39:02.227Z,99188.87
2019-03-23T17:41:35.583Z,99194.36
2019-03-23T17:44:08.788Z,99199.22
2019-03-23T17:46:42.207Z,99195.03
2019-03-23T17:49:16.208Z,99191.83
2019-03-23T17:51:48.930Z,99196.03
2019-03-23T17:54:22.054Z,99204.08
2019-03-23T17:56:54.935Z,99204.05
2019-03-23T17:59:28.740Z,99212.23
2019-03-23T18:02:02.147Z,99207.75
2019-03-23T18:04:34.711Z,99226.95
2019-03-23T18:07:07.466Z,99222.53
2019-03-23T18:09:40.387Z,99225.52
2019-03-23T18:12:13.597Z,99229.97
2019-03-23T18:14:47.472Z,99232.47
2019-03-23T18:17:20.292Z,99234.75
2019-03-23T18:19:53.347Z,99239.30
2019-03-23T18:22:26.665Z,99243.00
2019-03-23T18:24:59.467Z,99261.72
2019-03-23T18:27:32.630Z,99255.89
2019-03-23T18:30:05.985Z,99267.26
2019-03-23T18:32:40.573Z,99261.81
2019-03-23T18:35:14.537Z,99268.81
2019-03-23T18:37:48.962Z,99272.58
2019-03-23T18:40:23.482Z,99271.08
2019-03-23T18:43:01.914Z,99277.27
2019-03-23T18:45:35.764Z,99279.48
2019-03-23T18:48:09.612Z,99279.64
2019-03-23T18:50:42.993Z,99288.20
2019-03-23T18:53:15.907Z,99288.98
2019-03-23T18:55:48.658Z,99293.70
2019-03-23T18:58:21.575Z,99293.16
2019-03-23T19:00:54.531Z,99297.27
2019-03-23T19:03:27.682Z,99303.49
2019-03-23T19:06:00.718Z,99304.09
2019-03-23T19:08:41.045Z,99310.30
2019-03-23T19:11:15.005Z,99310.91
2019-03-23T19:13:52.358Z,99312.27
2019-03-23T19:16:25.131Z,99318.20
2019-03-23T19:19:01.764Z,99316.30
2019-03-23T19:21:42.912Z,99327.05
2019-03-23T19:24:17.586Z,99324.78
2019-03-23T19:26:52.411Z,99331.20
2019-03-23T19:29:27.776Z,99329.47
2019-03-23T19:32:01.950Z,99333.15
2019-03-23T19:34:36.094Z,99335.99
2019-03-23T19:37:09.342Z,99340.77
2019-03-23T19:39:45.638Z,99337.64
2019-03-23T19:42:18.506Z,99341.83
2019-03-23T19:44:54.829Z,99336.83
2019-03-23T19:47:28.162Z,99342.50
2019-03-23T19:50:01.210Z,99338.12
2019-03-23T19:52:33.859Z,99336.98
2019-03-23T19:55:09.945Z,99339.91
2019-03-23T19:57:42.861Z,99342.80
2019-03-23T20:00:28.621Z,99341.47
2019-03-23T20:03:05.103Z,99348.06
2019-03-23T20:05:37.750Z,99341.09
2019-03-23T20:08:10.723Z,99345.73
2019-03-23T20:10:43.737Z,99353.64
2019-03-23T20:13:16.743Z,99353.22
2019-03-23T20:15:52.342Z,99352.02
2019-03-23T20:18:25.174Z,99347.40
2019-03-23T20:21:07.864Z,99356.80
2019-03-23T20:23:41.165Z,99354.28
2019-03-23T20:26:18.715Z,99358.05
2019-03-23T20:28:51.626Z,99358.52
2019-03-23T20:31:27.663Z,99367.86
2019-03-23T20:34:02.599Z,99361.67
2019-03-23T20:36:39.001Z,99358.03
2019-03-23T20:39:12.055Z,99363.44
2019-03-23T20:41:47.643Z,99357.25
2019-03-23T20:44:20.519Z,99355.20
2019-03-23T20:46:53.967Z,99360.04
2019-03-23T20:49:28.782Z,99355.77
2019-03-23T20:52:02.155Z,99348.70
2019-03-23T20:54:37.800Z,99353.95
2019-03-23T20:57:11.224Z,99349.31
2019-03-23T20:59:46.408Z,99349.49
2019-03-23T21:02:19.719Z,99348.96
2019-03-23T21:04:53.246Z,99348.96
2019-03-23T21:07:27.067Z,99342.42
2019-03-23T21:10:00.455Z,99343.73
2019-03-23T21:12:34.477Z,99343.01
2019-03-23T21:15:08.759Z,99351.41
2019-03-23T21:17:51.106Z,99356.88
2019-03-23T21:20:19.881Z,99361.56
2019-03-23T21:22:53.295Z,99367.50
2019-03-23T21:25:29.943Z,99371.74
2019-03-23T21:28:04.771Z,99370.08
2019-03-23T21:30:39.080Z,99365.45
2019-03-23T21:33:12.739Z,99367.34
2019-03-23T21:35:45.642Z,99366.35
2019-03-23T21:38:19.718Z,99364.61
2019-03-23T21:40:53.610Z,99363.75
2019-03-23T21:43:27.360Z,99367.98
2019-03-23T21:46:00.122Z,99365.07
2019-03-23T21:48:33.261Z,99369.52
2019-03-23T21:51:06.484Z,99373.61
2019-03-23T21:53:39.624Z,99375.95
2019-03-23T21:56:12.610Z,99372.98
2019-03-23T21:58:45.465Z,99368.58
2019-03-23T22:01:18.517Z,99374.42
2019-03-23T22:03:52.869Z,99374.74
2019-03-23T22:06:28.439Z,99380.28
2019-03-23T22:09:01.344Z,99383.13
2019-03-23T22:11:34.731Z,99380.56
2019-03-23T22:14:07.876Z,99385.05
2019-03-23T22:16:40.673Z,99370.48
2019-03-23T22:19:13.647Z,99378.65
2019-03-23T22:21:47.085Z,99371.02
2019-03-23T22:24:19.781Z,99370.31
2019-03-23T22:26:52.742Z,99369.95
2019-03-23T22:29:25.671Z,99360.95
2019-03-23T22:32:01.965Z,99366.29
2019-03-23T22:34:36.042Z,99363.22
2019-03-23T22:37:09.020Z,99367.22
2019-03-23T22:39:41.838Z,99374.69
2019-03-23T22:42:14.522Z,99373.01
2019-03-23T22:44:54.446Z,99376.02
2019-03-23T22:47:27.221Z,99378.39
2019-03-23T22:49:59.911Z,99377.31
2019-03-23T22:52:32.600Z,99364.30
2019-03-23T22:55:06.894Z,99366.28
2019-03-23T22:57:40.060Z,99365.30
2019-03-23T23:00:17.017Z,99361.63
2019-03-23T23:02:50.193Z,99353.55
2019-03-23T23:05:23.151Z,99359.21
2019-03-23T23:07:56.232Z,99356.70
2019-03-23T23:10:29.116Z,99357.78
2019-03-23T23:13:02.860Z,99362.14
2019-03-23T23:15:35.445Z,99364.74
2019-03-23T23:18:08.517Z,99369.89
2019-03-23T23:20:40.978Z,99368.80
2019-03-23T23:23:13.937Z,99366.09
2019-03-23T23:25:46.487Z,99366.48
2019-03-23T23:28:26.340Z,99360.90
2019-03-23T23:30:58.915Z,99361.39
2019-03-23T23:33:31.505Z,99362.30
2019-03-23T23:36:04.113Z,99361.16
2019-03-23T23:38:36.947Z,99369.37
2019-03-23T23:41:09.826Z,99362.81
2019-03-23T23:43:42.792Z,99368.87
2019-03-23T23:46:15.668Z,99367.70
2019-03-23T23:48:51.700Z,99367.25
2019-03-23T23:51:24.333Z,99359.17
2019-03-23T23:54:00.027Z,99369.76
2019-03-23T23:56:32.771Z,99364.11
2019-03-23T23:59:12.629Z,99366.89
